sensor_id;sensor_type;location;lat;lon;timestamp;P1;durP1;ratioP1;P2;durP2;ratioP2
28431;SDS011;15664;51.302;7.744;2023-02-18T00:00:08;28.85;;;10.38;;
28431;SDS011;15664;51.302;7.744;2023-02-18T00:02:38;21.70;;;8.27;;
28431;SDS011;15664;51.302;7.744;2023-02-18T00:05:04;33.00;;;10.65;;
28431;SDS011;15664;51.302;7.744;2023-02-18T00:07:34;24.45;;;8.68;;
28431;SDS011;15664;51.302;7.744;2023-02-18T00:10:00;24.48;;;8.43;;
28431;SDS011;15664;51.302;7.744;2023-02-18T00:12:25;31.50;;;10.70;;
28431;SDS011;15664;51.302;7.744;2023-02-18T00:14:51;24.73;;;7.60;;
28431;SDS011;15664;51.302;7.744;2023-02-18T00:17:16;25.90;;;9.20;;
28431;SDS011;15664;51.302;7.744;2023-02-18T00:19:42;29.52;;;10.57;;
28431;SDS011;15664;51.302;7.744;2023-02-18T00:22:08;29.40;;;9.50;;
28431;SDS011;15664;51.302;7.744;2023-02-18T00:24:33;32.03;;;9.63;;
28431;SDS011;15664;51.302;7.744;2023-02-18T00:26:58;33.43;;;10.50;;
28431;SDS011;15664;51.302;7.744;2023-02-18T00:29:24;30.23;;;10.00;;
28431;SDS011;15664;51.302;7.744;2023-02-18T00:31:49;29.05;;;9.23;;
28431;SDS011;15664;51.302;7.744;2023-02-18T00:34:15;31.77;;;9.73;;
28431;SDS011;15664;51.302;7.744;2023-02-18T00:36:40;24.00;;;9.13;;
28431;SDS011;15664;51.302;7.744;2023-02-18T00:39:07;26.25;;;8.73;;
28431;SDS011;15664;51.302;7.744;2023-02-18T00:41:34;30.27;;;10.60;;
28431;SDS011;15664;51.302;7.744;2023-02-18T00:44:00;29.60;;;10.90;;
28431;SDS011;15664;51.302;7.744;2023-02-18T00:46:27;25.35;;;9.45;;
28431;SDS011;15664;51.302;7.744;2023-02-18T00:48:53;26.52;;;9.55;;
28431;SDS011;15664;51.302;7.744;2023-02-18T00:51:19;20.10;;;7.27;;
28431;SDS011;15664;51.302;7.744;2023-02-18T00:53:46;22.35;;;7.10;;
28431;SDS011;15664;51.302;7.744;2023-02-18T00:56:12;27.45;;;8.77;;
28431;SDS011;15664;51.302;7.744;2023-02-18T00:58:40;31.83;;;9.43;;
28431;SDS011;15664;51.302;7.744;2023-02-18T01:01:06;27.40;;;8.90;;
28431;SDS011;15664;51.302;7.744;2023-02-18T01:03:32;19.15;;;6.95;;
28431;SDS011;15664;51.302;7.744;2023-02-18T01:05:58;17.00;;;5.00;;
28431;SDS011;15664;51.302;7.744;2023-02-18T01:08:23;25.80;;;8.20;;
28431;SDS011;15664;51.302;7.744;2023-02-18T01:10:51;21.38;;;6.90;;
28431;SDS011;15664;51.302;7.744;2023-02-18T01:13:20;22.20;;;7.53;;
28431;SDS011;15664;51.302;7.744;2023-02-18T01:15:46;19.30;;;5.78;;
28431;SDS011;15664;51.302;7.744;2023-02-18T01:18:12;21.85;;;7.72;;
28431;SDS011;15664;51.302;7.744;2023-02-18T01:20:38;27.93;;;9.60;;
28431;SDS011;15664;51.302;7.744;2023-02-18T01:23:06;26.48;;;7.88;;
28431;SDS011;15664;51.302;7.744;2023-02-18T01:25:32;22.60;;;7.20;;
28431;SDS011;15664;51.302;7.744;2023-02-18T01:27:59;25.38;;;7.72;;
28431;SDS011;15664;51.302;7.744;2023-02-18T01:30:25;20.90;;;6.27;;
28431;SDS011;15664;51.302;7.744;2023-02-18T01:32:50;17.43;;;5.00;;
28431;SDS011;15664;51.302;7.744;2023-02-18T01:35:17;20.63;;;6.32;;
28431;SDS011;15664;51.302;7.744;2023-02-18T01:37:44;21.95;;;6.22;;
28431;SDS011;15664;51.302;7.744;2023-02-18T01:40:14;16.77;;;6.33;;
28431;SDS011;15664;51.302;7.744;2023-02-18T01:42:41;16.58;;;5.47;;
28431;SDS011;15664;51.302;7.744;2023-02-18T01:50:35;17.73;;;5.82;;
28431;SDS011;15664;51.302;7.744;2023-02-18T01:53:04;18.77;;;5.53;;
28431;SDS011;15664;51.302;7.744;2023-02-18T01:55:32;27.13;;;7.93;;
28431;SDS011;15664;51.302;7.744;2023-02-18T01:57:59;27.02;;;8.27;;
28431;SDS011;15664;51.302;7.744;2023-02-18T02:00:24;26.65;;;7.25;;
28431;SDS011;15664;51.302;7.744;2023-02-18T02:02:51;20.47;;;6.57;;
28431;SDS011;15664;51.302;7.744;2023-02-18T02:05:18;17.70;;;6.25;;
28431;SDS011;15664;51.302;7.744;2023-02-18T02:07:46;15.52;;;5.50;;
28431;SDS011;15664;51.302;7.744;2023-02-18T02:10:14;18.48;;;6.38;;
28431;SDS011;15664;51.302;7.744;2023-02-18T02:15:48;22.15;;;7.22;;
28431;SDS011;15664;51.302;7.744;2023-02-18T02:20:53;19.35;;;5.97;;
28431;SDS011;15664;51.302;7.744;2023-02-18T02:29:22;27.42;;;7.72;;
28431;SDS011;15664;51.302;7.744;2023-02-18T02:37:48;26.42;;;8.20;;
28431;SDS011;15664;51.302;7.744;2023-02-18T02:54:09;32.53;;;10.13;;
28431;SDS011;15664;51.302;7.744;2023-02-18T02:56:37;31.13;;;7.50;;
28431;SDS011;15664;51.302;7.744;2023-02-18T02:59:04;27.13;;;7.25;;
28431;SDS011;15664;51.302;7.744;2023-02-18T03:04:22;18.90;;;5.57;;
28431;SDS011;15664;51.302;7.744;2023-02-18T03:07:12;29.23;;;8.50;;
28431;SDS011;15664;51.302;7.744;2023-02-18T03:15:15;29.52;;;7.93;;
28431;SDS011;15664;51.302;7.744;2023-02-18T03:17:51;19.70;;;5.50;;
28431;SDS011;15664;51.302;7.744;2023-02-18T03:20:26;17.90;;;5.10;;
28431;SDS011;15664;51.302;7.744;2023-02-18T03:23:04;23.40;;;6.60;;
28431;SDS011;15664;51.302;7.744;2023-02-18T03:25:35;14.68;;;4.30;;
28431;SDS011;15664;51.302;7.744;2023-02-18T03:28:06;21.45;;;6.13;;
28431;SDS011;15664;51.302;7.744;2023-02-18T03:30:41;17.67;;;5.43;;
28431;SDS011;15664;51.302;7.744;2023-02-18T03:33:10;13.60;;;4.32;;
28431;SDS011;15664;51.302;7.744;2023-02-18T03:35:45;13.18;;;4.95;;
28431;SDS011;15664;51.302;7.744;2023-02-18T03:40:45;20.25;;;5.40;;
28431;SDS011;15664;51.302;7.744;2023-02-18T03:43:11;12.03;;;3.70;;
28431;SDS011;15664;51.302;7.744;2023-02-18T03:45:36;13.65;;;3.65;;
28431;SDS011;15664;51.302;7.744;2023-02-18T03:48:03;12.50;;;4.17;;
28431;SDS011;15664;51.302;7.744;2023-02-18T03:50:28;12.50;;;3.97;;
28431;SDS011;15664;51.302;7.744;2023-02-18T03:52:54;21.53;;;5.83;;
28431;SDS011;15664;51.302;7.744;2023-02-18T03:55:20;16.27;;;4.60;;
28431;SDS011;15664;51.302;7.744;2023-02-18T03:57:45;18.90;;;5.60;;
28431;SDS011;15664;51.302;7.744;2023-02-18T04:00:11;20.10;;;5.00;;
28431;SDS011;15664;51.302;7.744;2023-02-18T04:02:40;16.93;;;5.03;;
28431;SDS011;15664;51.302;7.744;2023-02-18T04:05:06;17.45;;;4.80;;
28431;SDS011;15664;51.302;7.744;2023-02-18T04:07:32;13.95;;;4.20;;
28431;SDS011;15664;51.302;7.744;2023-02-18T04:09:58;20.35;;;5.15;;
28431;SDS011;15664;51.302;7.744;2023-02-18T04:12:24;13.00;;;4.30;;
28431;SDS011;15664;51.302;7.744;2023-02-18T04:14:49;14.82;;;4.10;;
28431;SDS011;15664;51.302;7.744;2023-02-18T04:17:17;10.90;;;3.60;;
28431;SDS011;15664;51.302;7.744;2023-02-18T04:19:43;17.65;;;4.95;;
28431;SDS011;15664;51.302;7.744;2023-02-18T04:22:09;17.83;;;5.50;;
28431;SDS011;15664;51.302;7.744;2023-02-18T04:24:34;17.45;;;5.28;;
28431;SDS011;15664;51.302;7.744;2023-02-18T04:27:00;20.65;;;6.13;;
28431;SDS011;15664;51.302;7.744;2023-02-18T04:29:26;16.43;;;5.17;;
28431;SDS011;15664;51.302;7.744;2023-02-18T04:31:51;8.77;;;3.40;;
28431;SDS011;15664;51.302;7.744;2023-02-18T04:34:17;18.55;;;5.55;;
28431;SDS011;15664;51.302;7.744;2023-02-18T04:36:43;27.43;;;7.03;;
28431;SDS011;15664;51.302;7.744;2023-02-18T04:39:08;20.63;;;5.97;;
28431;SDS011;15664;51.302;7.744;2023-02-18T04:41:34;16.00;;;3.20;;
28431;SDS011;15664;51.302;7.744;2023-02-18T04:43:59;13.77;;;4.07;;
28431;SDS011;15664;51.302;7.744;2023-02-18T04:46:25;13.30;;;3.87;;
28431;SDS011;15664;51.302;7.744;2023-02-18T04:48:51;10.88;;;3.30;;
28431;SDS011;15664;51.302;7.744;2023-02-18T04:51:16;17.53;;;4.57;;
28431;SDS011;15664;51.302;7.744;2023-02-18T04:53:42;14.52;;;3.80;;
28431;SDS011;15664;51.302;7.744;2023-02-18T04:56:07;12.43;;;3.88;;
28431;SDS011;15664;51.302;7.744;2023-02-18T04:58:33;9.13;;;2.93;;
28431;SDS011;15664;51.302;7.744;2023-02-18T05:01:02;16.50;;;4.70;;
28431;SDS011;15664;51.302;7.744;2023-02-18T05:03:28;10.02;;;2.80;;
28431;SDS011;15664;51.302;7.744;2023-02-18T05:05:53;11.73;;;3.40;;
28431;SDS011;15664;51.302;7.744;2023-02-18T05:08:19;13.77;;;3.37;;
28431;SDS011;15664;51.302;7.744;2023-02-18T05:10:45;12.20;;;3.40;;
28431;SDS011;15664;51.302;7.744;2023-02-18T05:13:10;11.95;;;3.30;;
28431;SDS011;15664;51.302;7.744;2023-02-18T05:15:36;5.93;;;2.08;;
28431;SDS011;15664;51.302;7.744;2023-02-18T05:18:02;5.90;;;2.17;;
28431;SDS011;15664;51.302;7.744;2023-02-18T05:20:27;8.60;;;2.50;;
28431;SDS011;15664;51.302;7.744;2023-02-18T05:22:53;11.40;;;3.15;;
28431;SDS011;15664;51.302;7.744;2023-02-18T05:25:18;8.13;;;2.83;;
28431;SDS011;15664;51.302;7.744;2023-02-18T05:27:44;6.80;;;2.30;;
28431;SDS011;15664;51.302;7.744;2023-02-18T05:30:09;7.40;;;2.10;;
28431;SDS011;15664;51.302;7.744;2023-02-18T05:32:34;7.10;;;1.50;;
28431;SDS011;15664;51.302;7.744;2023-02-18T05:35:00;5.40;;;1.70;;
28431;SDS011;15664;51.302;7.744;2023-02-18T05:37:26;6.53;;;1.83;;
28431;SDS011;15664;51.302;7.744;2023-02-18T05:39:51;6.23;;;1.87;;
28431;SDS011;15664;51.302;7.744;2023-02-18T05:42:17;6.28;;;1.75;;
28431;SDS011;15664;51.302;7.744;2023-02-18T05:44:42;6.40;;;1.70;;
28431;SDS011;15664;51.302;7.744;2023-02-18T05:47:09;2.80;;;1.00;;
28431;SDS011;15664;51.302;7.744;2023-02-18T05:49:37;4.22;;;1.25;;
28431;SDS011;15664;51.302;7.744;2023-02-18T05:52:04;3.33;;;1.10;;
28431;SDS011;15664;51.302;7.744;2023-02-18T05:54:30;4.18;;;1.10;;
28431;SDS011;15664;51.302;7.744;2023-02-18T05:56:56;3.40;;;1.37;;
28431;SDS011;15664;51.302;7.744;2023-02-18T05:59:22;2.35;;;0.82;;
28431;SDS011;15664;51.302;7.744;2023-02-18T06:01:47;1.97;;;1.20;;
28431;SDS011;15664;51.302;7.744;2023-02-18T06:04:13;3.20;;;1.00;;
28431;SDS011;15664;51.302;7.744;2023-02-18T06:06:39;2.47;;;1.00;;
28431;SDS011;15664;51.302;7.744;2023-02-18T06:09:05;2.53;;;1.02;;
28431;SDS011;15664;51.302;7.744;2023-02-18T06:11:31;2.35;;;1.10;;
28431;SDS011;15664;51.302;7.744;2023-02-18T06:13:56;4.60;;;1.10;;
28431;SDS011;15664;51.302;7.744;2023-02-18T06:16:22;3.05;;;1.25;;
28431;SDS011;15664;51.302;7.744;2023-02-18T06:18:48;2.77;;;1.10;;
28431;SDS011;15664;51.302;7.744;2023-02-18T06:21:13;2.20;;;0.70;;
28431;SDS011;15664;51.302;7.744;2023-02-18T06:23:39;2.85;;;1.00;;
28431;SDS011;15664;51.302;7.744;2023-02-18T06:26:04;1.05;;;0.73;;
28431;SDS011;15664;51.302;7.744;2023-02-18T06:28:30;2.13;;;0.83;;
28431;SDS011;15664;51.302;7.744;2023-02-18T06:30:55;2.10;;;1.10;;
28431;SDS011;15664;51.302;7.744;2023-02-18T06:33:21;2.13;;;0.80;;
28431;SDS011;15664;51.302;7.744;2023-02-18T06:35:57;3.08;;;1.02;;
28431;SDS011;15664;51.302;7.744;2023-02-18T06:38:24;1.77;;;0.88;;
28431;SDS011;15664;51.302;7.744;2023-02-18T06:40:50;1.93;;;0.80;;
28431;SDS011;15664;51.302;7.744;2023-02-18T06:43:16;2.75;;;0.85;;
28431;SDS011;15664;51.302;7.744;2023-02-18T06:45:42;2.00;;;0.80;;
28431;SDS011;15664;51.302;7.744;2023-02-18T06:48:07;3.10;;;1.20;;
28431;SDS011;15664;51.302;7.744;2023-02-18T06:50:33;2.43;;;1.00;;
28431;SDS011;15664;51.302;7.744;2023-02-18T06:52:58;2.73;;;1.13;;
28431;SDS011;15664;51.302;7.744;2023-02-18T06:55:24;3.45;;;1.13;;
28431;SDS011;15664;51.302;7.744;2023-02-18T06:57:50;4.25;;;1.52;;
28431;SDS011;15664;51.302;7.744;2023-02-18T07:00:16;2.70;;;1.00;;
28431;SDS011;15664;51.302;7.744;2023-02-18T07:02:41;3.92;;;0.98;;
28431;SDS011;15664;51.302;7.744;2023-02-18T07:05:07;2.63;;;1.00;;
28431;SDS011;15664;51.302;7.744;2023-02-18T07:07:33;2.20;;;1.02;;
28431;SDS011;15664;51.302;7.744;2023-02-18T07:09:59;3.00;;;1.08;;
28431;SDS011;15664;51.302;7.744;2023-02-18T07:12:24;2.43;;;1.00;;
28431;SDS011;15664;51.302;7.744;2023-02-18T07:14:50;2.43;;;1.03;;
28431;SDS011;15664;51.302;7.744;2023-02-18T07:17:15;2.55;;;0.80;;
28431;SDS011;15664;51.302;7.744;2023-02-18T07:19:41;3.53;;;1.20;;
28431;SDS011;15664;51.302;7.744;2023-02-18T07:22:06;3.03;;;1.00;;
28431;SDS011;15664;51.302;7.744;2023-02-18T07:24:32;3.13;;;1.23;;
28431;SDS011;15664;51.302;7.744;2023-02-18T07:26:57;2.22;;;0.98;;
28431;SDS011;15664;51.302;7.744;2023-02-18T07:29:23;2.20;;;1.02;;
28431;SDS011;15664;51.302;7.744;2023-02-18T07:31:48;3.57;;;1.30;;
28431;SDS011;15664;51.302;7.744;2023-02-18T07:34:14;4.37;;;1.33;;
28431;SDS011;15664;51.302;7.744;2023-02-18T07:36:39;4.93;;;1.50;;
28431;SDS011;15664;51.302;7.744;2023-02-18T07:39:05;4.35;;;1.73;;
28431;SDS011;15664;51.302;7.744;2023-02-18T07:41:30;6.40;;;2.10;;
28431;SDS011;15664;51.302;7.744;2023-02-18T07:43:56;5.50;;;2.33;;
28431;SDS011;15664;51.302;7.744;2023-02-18T07:46:21;7.50;;;2.80;;
28431;SDS011;15664;51.302;7.744;2023-02-18T07:48:47;8.25;;;2.95;;
28431;SDS011;15664;51.302;7.744;2023-02-18T07:51:12;10.07;;;3.97;;
28431;SDS011;15664;51.302;7.744;2023-02-18T07:53:38;9.60;;;3.60;;
28431;SDS011;15664;51.302;7.744;2023-02-18T07:56:04;9.40;;;3.30;;
28431;SDS011;15664;51.302;7.744;2023-02-18T07:58:32;9.18;;;3.78;;
28431;SDS011;15664;51.302;7.744;2023-02-18T08:00:59;8.93;;;3.28;;
28431;SDS011;15664;51.302;7.744;2023-02-18T08:03:27;6.77;;;2.73;;
28431;SDS011;15664;51.302;7.744;2023-02-18T08:05:54;5.65;;;2.25;;
28431;SDS011;15664;51.302;7.744;2023-02-18T08:08:24;7.90;;;2.60;;
28431;SDS011;15664;51.302;7.744;2023-02-18T08:10:52;8.20;;;2.70;;
28431;SDS011;15664;51.302;7.744;2023-02-18T08:13:19;5.80;;;2.23;;
28431;SDS011;15664;51.302;7.744;2023-02-18T08:15:44;8.10;;;2.83;;
28431;SDS011;15664;51.302;7.744;2023-02-18T08:18:13;8.23;;;2.90;;
28431;SDS011;15664;51.302;7.744;2023-02-18T08:20:44;6.35;;;2.35;;
28431;SDS011;15664;51.302;7.744;2023-02-18T08:23:11;7.93;;;2.63;;
28431;SDS011;15664;51.302;7.744;2023-02-18T08:25:39;9.63;;;2.47;;
28431;SDS011;15664;51.302;7.744;2023-02-18T08:28:05;6.33;;;2.70;;
28431;SDS011;15664;51.302;7.744;2023-02-18T08:30:31;8.10;;;3.10;;
28431;SDS011;15664;51.302;7.744;2023-02-18T08:32:57;5.30;;;2.38;;
28431;SDS011;15664;51.302;7.744;2023-02-18T08:35:23;5.47;;;1.93;;
28431;SDS011;15664;51.302;7.744;2023-02-18T08:37:48;7.93;;;2.28;;
28431;SDS011;15664;51.302;7.744;2023-02-18T08:40:14;5.83;;;2.17;;
28431;SDS011;15664;51.302;7.744;2023-02-18T08:42:40;4.63;;;1.65;;
28431;SDS011;15664;51.302;7.744;2023-02-18T08:45:06;5.63;;;2.20;;
28431;SDS011;15664;51.302;7.744;2023-02-18T08:47:32;3.08;;;1.42;;
28431;SDS011;15664;51.302;7.744;2023-02-18T08:49:58;4.47;;;1.50;;
28431;SDS011;15664;51.302;7.744;2023-02-18T08:52:23;5.00;;;1.90;;
28431;SDS011;15664;51.302;7.744;2023-02-18T08:54:49;4.53;;;1.70;;
28431;SDS011;15664;51.302;7.744;2023-02-18T08:57:15;5.20;;;1.80;;
28431;SDS011;15664;51.302;7.744;2023-02-18T08:59:41;5.45;;;1.73;;
28431;SDS011;15664;51.302;7.744;2023-02-18T09:02:06;4.33;;;1.83;;
28431;SDS011;15664;51.302;7.744;2023-02-18T09:04:32;4.03;;;1.40;;
28431;SDS011;15664;51.302;7.744;2023-02-18T09:06:58;4.55;;;1.30;;
28431;SDS011;15664;51.302;7.744;2023-02-18T09:09:23;3.63;;;1.17;;
28431;SDS011;15664;51.302;7.744;2023-02-18T09:11:49;2.87;;;1.23;;
28431;SDS011;15664;51.302;7.744;2023-02-18T09:14:14;3.13;;;1.35;;
28431;SDS011;15664;51.302;7.744;2023-02-18T09:16:41;4.53;;;1.35;;
28431;SDS011;15664;51.302;7.744;2023-02-18T09:19:07;3.03;;;1.23;;
28431;SDS011;15664;51.302;7.744;2023-02-18T09:21:33;4.18;;;1.20;;
28431;SDS011;15664;51.302;7.744;2023-02-18T09:23:58;4.30;;;1.43;;
28431;SDS011;15664;51.302;7.744;2023-02-18T09:26:24;4.25;;;1.80;;
28431;SDS011;15664;51.302;7.744;2023-02-18T09:28:52;3.38;;;1.38;;
28431;SDS011;15664;51.302;7.744;2023-02-18T09:31:20;4.10;;;1.38;;
28431;SDS011;15664;51.302;7.744;2023-02-18T09:33:49;3.33;;;1.57;;
28431;SDS011;15664;51.302;7.744;2023-02-18T09:36:16;2.22;;;0.95;;
28431;SDS011;15664;51.302;7.744;2023-02-18T09:38:42;3.53;;;1.30;;
28431;SDS011;15664;51.302;7.744;2023-02-18T09:41:09;4.37;;;1.47;;
28431;SDS011;15664;51.302;7.744;2023-02-18T09:44:13;6.03;;;1.42;;
28431;SDS011;15664;51.302;7.744;2023-02-18T09:46:49;2.95;;;1.20;;
28431;SDS011;15664;51.302;7.744;2023-02-18T09:49:22;5.93;;;2.58;;
28431;SDS011;15664;51.302;7.744;2023-02-18T09:51:51;5.47;;;1.40;;
28431;SDS011;15664;51.302;7.744;2023-02-18T09:54:18;4.25;;;1.40;;
28431;SDS011;15664;51.302;7.744;2023-02-18T09:56:44;7.65;;;2.17;;
28431;SDS011;15664;51.302;7.744;2023-02-18T09:59:15;5.53;;;1.70;;
28431;SDS011;15664;51.302;7.744;2023-02-18T10:01:43;7.57;;;2.50;;
28431;SDS011;15664;51.302;7.744;2023-02-18T10:04:16;7.17;;;2.17;;
28431;SDS011;15664;51.302;7.744;2023-02-18T10:06:45;10.82;;;3.55;;
28431;SDS011;15664;51.302;7.744;2023-02-18T10:09:46;8.38;;;2.97;;
28431;SDS011;15664;51.302;7.744;2023-02-18T10:12:15;6.68;;;2.72;;
28431;SDS011;15664;51.302;7.744;2023-02-18T10:14:43;7.22;;;2.50;;
28431;SDS011;15664;51.302;7.744;2023-02-18T10:17:15;12.97;;;2.87;;
28431;SDS011;15664;51.302;7.744;2023-02-18T10:19:42;7.18;;;3.45;;
28431;SDS011;15664;51.302;7.744;2023-02-18T10:22:10;6.47;;;2.40;;
28431;SDS011;15664;51.302;7.744;2023-02-18T10:24:40;7.60;;;2.33;;
28431;SDS011;15664;51.302;7.744;2023-02-18T10:27:09;9.57;;;3.50;;
28431;SDS011;15664;51.302;7.744;2023-02-18T10:29:42;9.53;;;3.23;;
28431;SDS011;15664;51.302;7.744;2023-02-18T10:32:20;7.72;;;2.90;;
28431;SDS011;15664;51.302;7.744;2023-02-18T10:38:08;13.20;;;3.57;;
28431;SDS011;15664;51.302;7.744;2023-02-18T10:44:24;10.57;;;3.50;;
28431;SDS011;15664;51.302;7.744;2023-02-18T10:47:04;7.30;;;3.22;;
28431;SDS011;15664;51.302;7.744;2023-02-18T10:52:24;11.07;;;3.17;;
28431;SDS011;15664;51.302;7.744;2023-02-18T10:57:23;10.18;;;4.10;;
28431;SDS011;15664;51.302;7.744;2023-02-18T10:59:54;9.60;;;3.88;;
28431;SDS011;15664;51.302;7.744;2023-02-18T11:02:19;17.25;;;4.70;;
28431;SDS011;15664;51.302;7.744;2023-02-18T11:04:45;11.80;;;3.70;;
28431;SDS011;15664;51.302;7.744;2023-02-18T11:07:20;9.32;;;3.33;;
28431;SDS011;15664;51.302;7.744;2023-02-18T11:09:51;7.53;;;2.80;;
28431;SDS011;15664;51.302;7.744;2023-02-18T11:12:22;12.23;;;3.08;;
28431;SDS011;15664;51.302;7.744;2023-02-18T11:15:03;8.80;;;2.65;;
28431;SDS011;15664;51.302;7.744;2023-02-18T11:17:30;8.40;;;2.85;;
28431;SDS011;15664;51.302;7.744;2023-02-18T11:20:00;8.50;;;3.10;;
28431;SDS011;15664;51.302;7.744;2023-02-18T11:22:30;8.83;;;2.60;;
28431;SDS011;15664;51.302;7.744;2023-02-18T11:24:58;9.75;;;3.03;;
28431;SDS011;15664;51.302;7.744;2023-02-18T11:27:42;8.00;;;2.75;;
28431;SDS011;15664;51.302;7.744;2023-02-18T11:30:16;9.48;;;2.47;;
28431;SDS011;15664;51.302;7.744;2023-02-18T11:32:49;9.35;;;2.60;;
28431;SDS011;15664;51.302;7.744;2023-02-18T11:35:24;5.67;;;2.23;;
28431;SDS011;15664;51.302;7.744;2023-02-18T11:37:52;5.10;;;1.73;;
28431;SDS011;15664;51.302;7.744;2023-02-18T11:40:22;8.80;;;3.40;;
28431;SDS011;15664;51.302;7.744;2023-02-18T11:42:50;7.47;;;2.00;;
28431;SDS011;15664;51.302;7.744;2023-02-18T11:45:27;6.07;;;2.10;;
28431;SDS011;15664;51.302;7.744;2023-02-18T11:48:05;7.90;;;2.00;;
28431;SDS011;15664;51.302;7.744;2023-02-18T11:50:33;5.25;;;1.17;;
28431;SDS011;15664;51.302;7.744;2023-02-18T11:53:00;5.78;;;1.52;;
28431;SDS011;15664;51.302;7.744;2023-02-18T11:55:56;4.97;;;1.52;;
28431;SDS011;15664;51.302;7.744;2023-02-18T11:58:24;3.08;;;1.27;;
28431;SDS011;15664;51.302;7.744;2023-02-18T12:00:50;3.60;;;1.50;;
28431;SDS011;15664;51.302;7.744;2023-02-18T12:03:35;6.25;;;2.58;;
28431;SDS011;15664;51.302;7.744;2023-02-18T12:06:40;5.85;;;2.75;;
28431;SDS011;15664;51.302;7.744;2023-02-18T12:09:17;5.65;;;1.90;;
28431;SDS011;15664;51.302;7.744;2023-02-18T12:11:48;9.65;;;3.17;;
28431;SDS011;15664;51.302;7.744;2023-02-18T12:14:18;11.13;;;3.37;;
28431;SDS011;15664;51.302;7.744;2023-02-18T12:20:00;6.10;;;2.38;;
28431;SDS011;15664;51.302;7.744;2023-02-18T12:23:01;8.48;;;2.35;;
28431;SDS011;15664;51.302;7.744;2023-02-18T12:31:30;5.00;;;1.75;;
28431;SDS011;15664;51.302;7.744;2023-02-18T12:34:26;2.13;;;0.95;;
28431;SDS011;15664;51.302;7.744;2023-02-18T12:48:25;4.10;;;1.88;;
28431;SDS011;15664;51.302;7.744;2023-02-18T12:59:53;2.58;;;1.05;;
28431;SDS011;15664;51.302;7.744;2023-02-18T13:02:43;4.13;;;1.48;;
28431;SDS011;15664;51.302;7.744;2023-02-18T13:05:37;2.95;;;1.35;;
28431;SDS011;15664;51.302;7.744;2023-02-18T13:08:12;3.43;;;1.10;;
28431;SDS011;15664;51.302;7.744;2023-02-18T13:11:17;5.13;;;2.15;;
28431;SDS011;15664;51.302;7.744;2023-02-18T13:16:35;2.05;;;0.93;;
28431;SDS011;15664;51.302;7.744;2023-02-18T13:19:06;2.80;;;1.17;;
28431;SDS011;15664;51.302;7.744;2023-02-18T13:21:44;2.67;;;1.20;;
28431;SDS011;15664;51.302;7.744;2023-02-18T13:24:16;4.78;;;1.63;;
28431;SDS011;15664;51.302;7.744;2023-02-18T13:32:38;3.45;;;1.10;;
28431;SDS011;15664;51.302;7.744;2023-02-18T13:35:26;6.93;;;1.50;;
28431;SDS011;15664;51.302;7.744;2023-02-18T13:40:49;2.78;;;1.25;;
28431;SDS011;15664;51.302;7.744;2023-02-18T13:46:02;3.53;;;1.33;;
28431;SDS011;15664;51.302;7.744;2023-02-18T13:48:41;3.03;;;1.50;;
28431;SDS011;15664;51.302;7.744;2023-02-18T13:51:12;2.78;;;1.40;;
28431;SDS011;15664;51.302;7.744;2023-02-18T13:53:41;3.42;;;1.20;;
28431;SDS011;15664;51.302;7.744;2023-02-18T13:58:42;4.57;;;1.43;;
28431;SDS011;15664;51.302;7.744;2023-02-18T14:01:14;2.92;;;1.00;;
28431;SDS011;15664;51.302;7.744;2023-02-18T14:08:43;4.20;;;1.58;;
28431;SDS011;15664;51.302;7.744;2023-02-18T14:13:41;3.25;;;1.40;;
28431;SDS011;15664;51.302;7.744;2023-02-18T14:16:13;6.13;;;1.95;;
28431;SDS011;15664;51.302;7.744;2023-02-18T14:21:15;5.67;;;1.77;;
28431;SDS011;15664;51.302;7.744;2023-02-18T14:33:38;3.10;;;1.50;;
28431;SDS011;15664;51.302;7.744;2023-02-18T14:47:26;6.80;;;2.42;;
28431;SDS011;15664;51.302;7.744;2023-02-18T14:50:02;11.77;;;5.45;;
28431;SDS011;15664;51.302;7.744;2023-02-18T14:52:40;11.23;;;4.38;;
28431;SDS011;15664;51.302;7.744;2023-02-18T14:58:30;8.23;;;3.77;;
28431;SDS011;15664;51.302;7.744;2023-02-18T15:01:18;9.52;;;3.50;;
28431;SDS011;15664;51.302;7.744;2023-02-18T15:03:49;7.20;;;3.05;;
28431;SDS011;15664;51.302;7.744;2023-02-18T15:06:53;4.68;;;2.20;;
28431;SDS011;15664;51.302;7.744;2023-02-18T15:09:13;7.72;;;3.03;;
28431;SDS011;15664;51.302;7.744;2023-02-18T15:11:46;5.93;;;2.20;;
28431;SDS011;15664;51.302;7.744;2023-02-18T15:14:25;7.80;;;2.92;;
28431;SDS011;15664;51.302;7.744;2023-02-18T15:16:54;10.18;;;3.67;;
28431;SDS011;15664;51.302;7.744;2023-02-18T15:19:22;8.63;;;3.20;;
28431;SDS011;15664;51.302;7.744;2023-02-18T15:21:51;5.63;;;2.15;;
28431;SDS011;15664;51.302;7.744;2023-02-18T15:26:56;10.35;;;3.40;;
28431;SDS011;15664;51.302;7.744;2023-02-18T15:29:25;6.40;;;2.88;;
28431;SDS011;15664;51.302;7.744;2023-02-18T15:31:53;6.40;;;2.40;;
28431;SDS011;15664;51.302;7.744;2023-02-18T15:37:02;7.00;;;2.73;;
28431;SDS011;15664;51.302;7.744;2023-02-18T15:39:29;7.43;;;3.17;;
28431;SDS011;15664;51.302;7.744;2023-02-18T15:42:00;9.52;;;3.53;;
28431;SDS011;15664;51.302;7.744;2023-02-18T15:44:31;9.65;;;3.47;;
28431;SDS011;15664;51.302;7.744;2023-02-18T15:47:02;9.23;;;2.85;;
28431;SDS011;15664;51.302;7.744;2023-02-18T15:49:31;9.83;;;3.80;;
28431;SDS011;15664;51.302;7.744;2023-02-18T15:52:00;7.85;;;2.70;;
28431;SDS011;15664;51.302;7.744;2023-02-18T15:54:27;10.25;;;3.78;;
28431;SDS011;15664;51.302;7.744;2023-02-18T15:56:55;7.15;;;2.25;;
28431;SDS011;15664;51.302;7.744;2023-02-18T15:59:25;7.03;;;2.75;;
28431;SDS011;15664;51.302;7.744;2023-02-18T16:02:02;6.70;;;2.70;;
28431;SDS011;15664;51.302;7.744;2023-02-18T16:04:39;8.98;;;3.05;;
28431;SDS011;15664;51.302;7.744;2023-02-18T16:07:20;9.57;;;3.60;;
28431;SDS011;15664;51.302;7.744;2023-02-18T16:09:56;6.32;;;2.50;;
28431;SDS011;15664;51.302;7.744;2023-02-18T16:12:33;7.35;;;2.95;;
28431;SDS011;15664;51.302;7.744;2023-02-18T16:15:02;5.67;;;2.47;;
28431;SDS011;15664;51.302;7.744;2023-02-18T16:17:28;6.35;;;2.70;;
28431;SDS011;15664;51.302;7.744;2023-02-18T16:20:15;7.43;;;2.63;;
28431;SDS011;15664;51.302;7.744;2023-02-18T16:23:10;8.93;;;2.83;;
28431;SDS011;15664;51.302;7.744;2023-02-18T16:25:44;7.72;;;2.88;;
28431;SDS011;15664;51.302;7.744;2023-02-18T16:28:12;9.70;;;3.67;;
28431;SDS011;15664;51.302;7.744;2023-02-18T16:30:40;8.57;;;3.22;;
28431;SDS011;15664;51.302;7.744;2023-02-18T16:33:07;8.80;;;3.10;;
28431;SDS011;15664;51.302;7.744;2023-02-18T16:35:33;5.17;;;2.40;;
28431;SDS011;15664;51.302;7.744;2023-02-18T16:37:59;10.07;;;3.45;;
28431;SDS011;15664;51.302;7.744;2023-02-18T16:42:58;7.03;;;2.65;;
28431;SDS011;15664;51.302;7.744;2023-02-18T16:45:30;12.73;;;4.63;;
28431;SDS011;15664;51.302;7.744;2023-02-18T16:47:58;10.10;;;3.60;;
28431;SDS011;15664;51.302;7.744;2023-02-18T16:50:24;17.17;;;5.43;;
28431;SDS011;15664;51.302;7.744;2023-02-18T16:52:52;16.80;;;5.85;;
28431;SDS011;15664;51.302;7.744;2023-02-18T16:55:21;14.50;;;5.13;;
28431;SDS011;15664;51.302;7.744;2023-02-18T16:57:48;18.48;;;6.55;;
28431;SDS011;15664;51.302;7.744;2023-02-18T17:00:14;16.37;;;6.10;;
28431;SDS011;15664;51.302;7.744;2023-02-18T17:02:41;10.80;;;4.18;;
28431;SDS011;15664;51.302;7.744;2023-02-18T17:05:09;17.87;;;6.07;;
28431;SDS011;15664;51.302;7.744;2023-02-18T17:07:40;20.17;;;6.57;;
28431;SDS011;15664;51.302;7.744;2023-02-18T17:10:06;16.67;;;6.13;;
28431;SDS011;15664;51.302;7.744;2023-02-18T17:12:31;13.82;;;5.60;;
28431;SDS011;15664;51.302;7.744;2023-02-18T17:14:57;12.87;;;4.80;;
28431;SDS011;15664;51.302;7.744;2023-02-18T17:17:22;16.00;;;6.20;;
28431;SDS011;15664;51.302;7.744;2023-02-18T17:19:48;19.07;;;6.80;;
28431;SDS011;15664;51.302;7.744;2023-02-18T17:22:13;20.23;;;7.60;;